createdAt,value
2018-07-26T00:00:40.403Z,10.40
2018-07-26T00:01:44.682Z,9.67
2018-07-26T00:02:48.919Z,16.47
2018-07-26T00:03:53.122Z,10.53
2018-07-26T00:04:57.621Z,9.30
2018-07-26T00:06:02.050Z,9.63
2018-07-26T00:07:06.642Z,11.00
2018-07-26T00:08:10.897Z,9.63
2018-07-26T00:09:15.066Z,14.03
2018-07-26T00:10:19.303Z,8.87
2018-07-26T00:11:23.503Z,10.70
2018-07-26T00:12:27.862Z,10.07
2018-07-26T00:13:32.095Z,11.17
2018-07-26T00:14:36.683Z,9.53
2018-07-26T00:15:41.095Z,17.10
2018-07-26T00:16:45.715Z,10.47
2018-07-26T00:17:49.917Z,10.60
2018-07-26T00:18:54.285Z,11.00
2018-07-26T00:19:58.522Z,10.57
2018-07-26T00:21:02.714Z,10.50
2018-07-26T00:22:07.468Z,10.00
2018-07-26T00:23:11.965Z,10.43
2018-07-26T00:24:16.294Z,14.33
2018-07-26T00:25:20.462Z,16.33
2018-07-26T00:26:24.634Z,13.70
2018-07-26T00:27:28.900Z,10.50
2018-07-26T00:28:33.063Z,9.90
2018-07-26T00:29:37.253Z,13.00
2018-07-26T00:30:41.746Z,11.80
2018-07-26T00:31:46.098Z,10.30
2018-07-26T00:32:50.529Z,12.73
2018-07-26T00:33:54.836Z,10.73
2018-07-26T00:34:59.046Z,11.40
2018-07-26T00:36:03.350Z,12.17
2018-07-26T00:37:07.561Z,11.77
2018-07-26T00:38:11.785Z,10.83
2018-07-26T00:39:16.271Z,13.87
2018-07-26T00:40:20.640Z,11.37
2018-07-26T00:41:24.941Z,16.13
2018-07-26T00:42:29.102Z,12.83
2018-07-26T00:43:33.329Z,16.00
2018-07-26T00:44:37.604Z,10.90
2018-07-26T00:45:41.821Z,10.83
2018-07-26T00:46:46.044Z,13.77
2018-07-26T00:47:50.199Z,14.50
2018-07-26T00:48:54.493Z,12.60
2018-07-26T00:49:58.665Z,12.47
2018-07-26T00:51:02.987Z,13.30
2018-07-26T00:52:07.622Z,13.40
2018-07-26T00:53:11.903Z,13.60
2018-07-26T00:54:16.168Z,11.40
2018-07-26T00:55:20.450Z,11.30
2018-07-26T00:56:24.737Z,12.80
2018-07-26T00:57:28.985Z,13.50
2018-07-26T00:58:33.511Z,13.33
2018-07-26T00:59:37.808Z,13.40
2018-07-26T01:00:42.017Z,11.30
2018-07-26T01:01:46.253Z,12.57
2018-07-26T01:02:50.690Z,11.47
2018-07-26T01:03:55.177Z,15.90
2018-07-26T01:04:59.413Z,13.50
2018-07-26T01:06:03.628Z,12.20
2018-07-26T01:07:07.833Z,13.40
2018-07-26T01:08:12.078Z,11.90
2018-07-26T01:09:16.338Z,12.73
2018-07-26T01:10:20.575Z,22.23
2018-07-26T01:11:24.799Z,11.00
2018-07-26T01:12:29.090Z,12.40
2018-07-26T01:13:33.296Z,11.40
2018-07-26T01:14:37.518Z,13.43
2018-07-26T01:15:41.759Z,12.17
2018-07-26T01:16:46.125Z,11.50
2018-07-26T01:17:50.509Z,11.00
2018-07-26T01:18:54.677Z,11.23
2018-07-26T01:19:58.974Z,11.20
2018-07-26T01:21:03.244Z,15.37
2018-07-26T01:22:08.166Z,13.07
2018-07-26T01:23:12.516Z,13.13
2018-07-26T01:24:17.042Z,12.20
2018-07-26T01:25:21.261Z,13.30
2018-07-26T01:26:25.458Z,13.47
2018-07-26T01:27:29.733Z,12.77
2018-07-26T01:28:34.038Z,12.07
2018-07-26T01:29:38.331Z,12.60
2018-07-26T01:30:42.505Z,11.60
2018-07-26T01:31:46.932Z,12.53
2018-07-26T01:32:51.186Z,13.13
2018-07-26T01:33:55.450Z,12.00
2018-07-26T01:34:59.813Z,12.17
2018-07-26T01:36:04.153Z,11.70
2018-07-26T01:37:08.407Z,12.43
2018-07-26T01:38:12.790Z,12.17
2018-07-26T01:39:17.423Z,15.27
2018-07-26T01:40:21.714Z,13.67
2018-07-26T01:41:25.976Z,12.80
2018-07-26T01:42:34.719Z,12.07
2018-07-26T01:43:51.108Z,12.20
2018-07-26T01:44:55.312Z,11.93
2018-07-26T01:45:59.533Z,12.57
2018-07-26T01:47:03.777Z,16.57
2018-07-26T01:48:08.040Z,12.83
2018-07-26T01:49:12.262Z,12.83
2018-07-26T01:50:16.692Z,12.23
2018-07-26T01:51:21.069Z,13.00
2018-07-26T01:52:25.606Z,12.80
2018-07-26T01:53:29.855Z,15.57
2018-07-26T01:54:34.095Z,15.83
2018-07-26T01:55:38.358Z,15.80
2018-07-26T01:56:42.628Z,23.57
2018-07-26T01:57:47.047Z,15.73
2018-07-26T01:58:51.306Z,11.23
2018-07-26T01:59:55.623Z,14.40
2018-07-26T02:00:59.818Z,13.87
2018-07-26T02:02:04.158Z,13.07
2018-07-26T02:03:08.419Z,15.33
2018-07-26T02:04:12.709Z,13.53
2018-07-26T02:05:17.037Z,13.30
2018-07-26T02:06:21.352Z,14.47
2018-07-26T02:07:25.612Z,13.37
2018-07-26T02:08:29.926Z,16.87
2018-07-26T02:09:34.162Z,16.37
2018-07-26T02:10:38.564Z,14.30
2018-07-26T02:11:42.772Z,19.07
2018-07-26T02:12:47.234Z,13.07
2018-07-26T02:13:51.385Z,13.00
2018-07-26T02:14:55.718Z,13.63
2018-07-26T02:15:59.934Z,13.60
2018-07-26T02:17:04.820Z,12.97
2018-07-26T02:18:09.080Z,12.90
2018-07-26T02:19:13.374Z,13.43
2018-07-26T02:20:17.550Z,14.73
2018-07-26T02:21:21.941Z,13.90
2018-07-26T02:22:26.320Z,13.50
2018-07-26T02:23:30.593Z,15.67
2018-07-26T02:24:34.903Z,14.50
2018-07-26T02:25:39.383Z,14.47
2018-07-26T02:26:43.721Z,20.53
2018-07-26T02:27:48.005Z,14.93
2018-07-26T02:28:52.251Z,14.00
2018-07-26T02:29:56.496Z,13.33
2018-07-26T02:31:00.685Z,15.67
2018-07-26T02:32:04.931Z,16.40
2018-07-26T02:33:09.595Z,14.07
2018-07-26T02:34:13.864Z,16.30
2018-07-26T02:35:18.056Z,14.83
2018-07-26T02:36:22.365Z,14.17
2018-07-26T02:37:26.878Z,16.47
2018-07-26T02:38:31.037Z,13.07
2018-07-26T02:39:35.508Z,12.80
2018-07-26T02:40:39.924Z,17.13
2018-07-26T02:41:44.335Z,25.10
2018-07-26T02:42:48.541Z,15.20
2018-07-26T02:43:52.818Z,17.40
2018-07-26T02:44:57.056Z,15.93
2018-07-26T02:46:01.257Z,17.97
2018-07-26T02:47:05.846Z,17.50
2018-07-26T02:48:10.322Z,14.00
2018-07-26T02:49:14.569Z,14.83
2018-07-26T02:50:18.904Z,14.53
2018-07-26T02:51:23.125Z,17.03
2018-07-26T02:52:27.439Z,13.67
2018-07-26T02:53:31.616Z,20.47
2018-07-26T02:54:36.238Z,14.17
2018-07-26T02:55:40.402Z,12.87
2018-07-26T02:56:44.610Z,15.33
2018-07-26T02:57:49.090Z,16.83
2018-07-26T02:58:53.479Z,15.63
2018-07-26T02:59:57.870Z,20.37
2018-07-26T03:01:02.126Z,15.60
2018-07-26T03:02:06.634Z,14.00
2018-07-26T03:03:11.286Z,13.30
2018-07-26T03:04:15.683Z,14.77
2018-07-26T03:05:20.274Z,19.13
2018-07-26T03:06:24.573Z,13.57
2018-07-26T03:07:29.048Z,20.47
2018-07-26T03:08:33.290Z,16.87
2018-07-26T03:09:37.854Z,15.47
2018-07-26T03:10:42.067Z,17.20
2018-07-26T03:11:46.586Z,19.73
2018-07-26T03:12:50.800Z,14.13
2018-07-26T03:13:55.011Z,15.93
2018-07-26T03:14:59.213Z,15.43
2018-07-26T03:16:03.665Z,14.83
2018-07-26T03:17:08.009Z,20.40
2018-07-26T03:18:12.293Z,16.10
2018-07-26T03:19:16.477Z,16.10
2018-07-26T03:20:20.762Z,17.23
2018-07-26T03:21:24.997Z,16.63
2018-07-26T03:22:29.446Z,22.63
2018-07-26T03:23:33.788Z,16.63
2018-07-26T03:24:38.374Z,16.20
2018-07-26T03:25:42.844Z,15.77
2018-07-26T03:26:47.327Z,16.87
2018-07-26T03:27:51.664Z,18.50
2018-07-26T03:28:56.203Z,17.83
2018-07-26T03:30:00.633Z,17.57
2018-07-26T03:31:04.861Z,19.43
2018-07-26T03:32:09.889Z,15.70
2018-07-26T03:33:14.217Z,18.30
2018-07-26T03:34:18.441Z,15.03
2018-07-26T03:35:22.683Z,15.17
2018-07-26T03:36:27.034Z,18.50
2018-07-26T03:37:31.207Z,15.70
2018-07-26T03:38:35.476Z,16.73
2018-07-26T03:39:39.685Z,21.63
2018-07-26T03:40:44.220Z,15.50
2018-07-26T03:41:48.560Z,15.40
2018-07-26T03:42:52.943Z,15.43
2018-07-26T03:43:57.174Z,19.40
2018-07-26T03:45:01.366Z,17.97
2018-07-26T03:46:06.433Z,17.33
2018-07-26T03:47:10.992Z,17.07
2018-07-26T03:48:15.351Z,17.60
2018-07-26T03:49:19.560Z,18.60
2018-07-26T03:50:23.789Z,17.07
2018-07-26T03:51:28.170Z,23.23
2018-07-26T03:52:32.350Z,18.63
2018-07-26T03:53:36.757Z,19.37
2018-07-26T03:54:41.041Z,20.77
2018-07-26T03:55:45.796Z,21.10
2018-07-26T03:56:50.066Z,19.87
2018-07-26T03:57:54.414Z,20.37
2018-07-26T03:58:58.668Z,16.73
2018-07-26T04:00:03.207Z,18.57
2018-07-26T04:01:07.469Z,21.67
2018-07-26T04:02:12.024Z,26.33
2018-07-26T04:03:16.256Z,19.53
2018-07-26T04:04:20.509Z,18.87
2018-07-26T04:05:24.798Z,20.33
2018-07-26T04:06:29.096Z,20.53
2018-07-26T04:07:33.426Z,18.63
2018-07-26T04:08:37.645Z,19.30
2018-07-26T04:09:41.890Z,22.07
2018-07-26T04:10:46.505Z,24.00
2018-07-26T04:11:50.800Z,26.10
2018-07-26T04:12:55.125Z,18.43
2018-07-26T04:13:59.419Z,20.93
2018-07-26T04:15:03.861Z,20.97
2018-07-26T04:16:08.260Z,25.23
2018-07-26T04:17:12.833Z,22.87
2018-07-26T04:18:17.146Z,18.53
2018-07-26T04:19:21.334Z,26.03
2018-07-26T04:20:25.711Z,20.80
2018-07-26T04:21:30.265Z,22.23
2018-07-26T04:22:34.693Z,20.93
2018-07-26T04:23:39.183Z,23.60
2018-07-26T04:24:43.478Z,18.53
2018-07-26T04:25:47.882Z,19.37
2018-07-26T04:26:52.215Z,18.90
2018-07-26T04:27:56.828Z,22.13
2018-07-26T04:29:01.162Z,28.03
2018-07-26T04:30:05.705Z,20.50
2018-07-26T04:31:10.106Z,25.07
2018-07-26T04:32:14.318Z,21.80
2018-07-26T04:33:18.689Z,17.90
2018-07-26T04:34:22.976Z,19.90
2018-07-26T04:35:27.354Z,19.20
2018-07-26T04:36:31.680Z,18.83
2018-07-26T04:37:36.089Z,23.50
2018-07-26T04:38:40.313Z,20.53
2018-07-26T04:39:47.996Z,22.27
2018-07-26T04:40:52.195Z,19.50
2018-07-26T04:41:57.526Z,17.57
2018-07-26T04:43:01.800Z,20.20
2018-07-26T04:44:06.069Z,18.10
2018-07-26T04:45:10.382Z,17.53
2018-07-26T04:46:14.586Z,20.90
2018-07-26T04:47:18.881Z,21.10
2018-07-26T04:48:23.095Z,20.37
2018-07-26T04:49:27.739Z,18.70
2018-07-26T04:50:31.916Z,20.90
2018-07-26T04:51:36.165Z,19.87
2018-07-26T04:52:40.623Z,19.07
2018-07-26T04:53:44.871Z,20.10
2018-07-26T04:54:49.246Z,21.97
2018-07-26T04:55:53.639Z,23.47
2018-07-26T04:56:58.089Z,18.23
2018-07-26T04:58:02.339Z,22.13
2018-07-26T04:59:06.864Z,19.70
2018-07-26T05:00:11.267Z,18.90
2018-07-26T05:01:16.099Z,23.83
2018-07-26T05:02:20.499Z,18.37
2018-07-26T05:03:25.474Z,22.83
2018-07-26T05:04:29.878Z,20.20
2018-07-26T05:05:33.121Z,23.27
2018-07-26T05:06:37.161Z,21.03
2018-07-26T05:07:41.518Z,18.93
2018-07-26T05:08:46.015Z,22.93
2018-07-26T05:09:50.486Z,18.73
2018-07-26T05:10:54.935Z,17.17
2018-07-26T05:11:59.240Z,19.17
2018-07-26T05:13:03.495Z,20.97
2018-07-26T05:14:07.853Z,19.20
2018-07-26T05:15:12.073Z,17.07
2018-07-26T05:16:16.245Z,18.30
2018-07-26T05:17:21.191Z,17.43
2018-07-26T05:18:25.631Z,28.53
2018-07-26T05:19:29.840Z,17.17
2018-07-26T05:20:34.182Z,17.27
2018-07-26T05:21:38.406Z,16.13
2018-07-26T05:22:42.650Z,18.27
2018-07-26T05:23:47.141Z,24.67
2018-07-26T05:24:51.478Z,16.50
2018-07-26T05:25:56.159Z,20.10
2018-07-26T05:27:00.378Z,21.03
2018-07-26T05:28:04.918Z,17.00
2018-07-26T05:29:09.264Z,18.00
2018-07-26T05:30:13.541Z,21.43
2018-07-26T05:31:17.774Z,22.47
2018-07-26T05:32:22.052Z,23.10
2018-07-26T05:33:26.231Z,19.17
2018-07-26T05:34:30.430Z,18.20
2018-07-26T05:35:34.720Z,16.80
2018-07-26T05:36:39.253Z,17.10
2018-07-26T05:37:43.539Z,15.67
2018-07-26T05:38:47.953Z,19.40
2018-07-26T05:39:52.301Z,17.03
2018-07-26T05:40:56.604Z,13.77
2018-07-26T05:42:00.894Z,16.40
2018-07-26T05:43:05.182Z,17.03
2018-07-26T05:44:09.545Z,14.17
2018-07-26T05:45:13.994Z,13.10
2018-07-26T05:46:18.254Z,18.70
2018-07-26T05:47:22.577Z,16.80
2018-07-26T05:48:27.010Z,13.90
2018-07-26T05:49:31.227Z,16.30
2018-07-26T05:50:35.441Z,13.70
2018-07-26T05:51:39.691Z,18.80
2018-07-26T05:52:44.194Z,17.43
2018-07-26T05:53:48.478Z,19.13
2018-07-26T05:54:52.710Z,15.43
2018-07-26T05:55:56.901Z,18.43
2018-07-26T05:57:01.264Z,17.50
2018-07-26T05:58:06.040Z,20.73
2018-07-26T05:59:10.194Z,16.20
2018-07-26T06:00:15.063Z,23.00
2018-07-26T06:01:19.167Z,21.93
2018-07-26T06:02:23.614Z,13.47
2018-07-26T06:03:27.826Z,14.73
2018-07-26T06:04:32.095Z,18.83
2018-07-26T06:05:36.485Z,17.73
2018-07-26T06:06:40.838Z,18.93
2018-07-26T06:07:45.039Z,17.90
2018-07-26T06:08:49.265Z,19.43
2018-07-26T06:09:53.631Z,18.10
2018-07-26T06:10:57.830Z,15.53
2018-07-26T06:12:02.280Z,13.83
2018-07-26T06:13:06.863Z,15.23
2018-07-26T06:14:11.072Z,17.20
2018-07-26T06:15:15.756Z,21.43
2018-07-26T06:16:20.265Z,20.43
2018-07-26T06:17:24.607Z,15.30
2018-07-26T06:18:29.019Z,18.00
2018-07-26T06:19:33.266Z,18.93
2018-07-26T06:20:37.757Z,27.40
2018-07-26T06:21:41.913Z,15.97
2018-07-26T06:22:46.151Z,18.33
2018-07-26T06:23:50.530Z,16.00
2018-07-26T06:24:54.706Z,17.30
2018-07-26T06:25:58.890Z,15.13
2018-07-26T06:27:03.097Z,16.90
2018-07-26T06:28:07.436Z,36.67
2018-07-26T06:29:11.652Z,25.37
2018-07-26T06:30:15.860Z,35.60
2018-07-26T06:31:20.098Z,42.90
2018-07-26T06:32:24.308Z,21.83
2018-07-26T06:33:28.755Z,14.13
2018-07-26T06:34:33.078Z,20.20
2018-07-26T06:35:37.274Z,17.13
2018-07-26T06:36:41.478Z,15.70
2018-07-26T06:37:45.763Z,25.30
2018-07-26T06:38:50.452Z,15.07
2018-07-26T06:39:54.639Z,20.40
2018-07-26T06:40:59.045Z,20.77
2018-07-26T06:42:03.450Z,15.50
2018-07-26T06:43:07.672Z,14.40
2018-07-26T06:44:12.046Z,30.43
2018-07-26T06:45:16.402Z,33.90
2018-07-26T06:46:20.633Z,89.03
2018-07-26T06:47:24.919Z,35.40
2018-07-26T06:48:29.428Z,40.37
2018-07-26T06:49:33.670Z,29.87
2018-07-26T06:50:38.028Z,27.10
2018-07-26T06:51:42.448Z,18.93
2018-07-26T06:52:46.629Z,19.13
2018-07-26T06:53:50.864Z,12.80
2018-07-26T06:54:55.019Z,18.77
2018-07-26T06:55:59.329Z,18.97
2018-07-26T06:57:03.499Z,18.40
2018-07-26T06:58:07.714Z,20.27
2018-07-26T06:59:11.989Z,13.63
2018-07-26T07:00:16.206Z,19.70
2018-07-26T07:01:20.510Z,12.60
2018-07-26T07:02:24.769Z,19.40
2018-07-26T07:03:29.031Z,10.70
2018-07-26T07:04:33.143Z,18.63
2018-07-26T07:05:37.314Z,11.63
2018-07-26T07:06:41.557Z,10.93
2018-07-26T07:07:45.875Z,10.87
2018-07-26T07:08:50.047Z,15.90
2018-07-26T07:09:54.232Z,13.70
2018-07-26T07:10:58.391Z,12.50
2018-07-26T07:12:02.765Z,14.10
2018-07-26T07:13:07.314Z,14.23
2018-07-26T07:14:11.591Z,9.87
2018-07-26T07:15:16.027Z,13.40
2018-07-26T07:16:20.293Z,15.97
2018-07-26T07:17:24.883Z,10.73
2018-07-26T07:18:29.379Z,11.17
2018-07-26T07:19:33.838Z,12.03
2018-07-26T07:20:40.225Z,10.63
2018-07-26T07:23:02.422Z,11.60
2018-07-26T07:24:07.253Z,21.23
2018-07-26T07:25:11.464Z,12.83
2018-07-26T07:26:16.250Z,10.23
2018-07-26T07:27:20.439Z,12.33
2018-07-26T07:28:24.649Z,17.17
2018-07-26T07:29:28.837Z,13.77
2018-07-26T07:30:33.045Z,18.20
2018-07-26T07:31:37.178Z,12.93
2018-07-26T07:32:42.206Z,9.80
2018-07-26T07:33:46.436Z,11.73
2018-07-26T07:34:50.636Z,14.03
2018-07-26T07:35:54.902Z,9.80
2018-07-26T07:36:59.107Z,13.57
2018-07-26T07:38:03.415Z,13.37
2018-07-26T07:39:10.209Z,16.90
2018-07-26T07:40:14.453Z,16.23
2018-07-26T07:41:18.754Z,10.80
2018-07-26T07:42:23.112Z,10.13
2018-07-26T07:43:27.332Z,18.90
2018-07-26T07:44:31.592Z,8.63
2018-07-26T07:45:35.792Z,12.17
2018-07-26T07:46:40.567Z,13.07
2018-07-26T07:47:44.875Z,20.63
2018-07-26T07:48:48.963Z,14.47
2018-07-26T07:49:53.188Z,12.67
2018-07-26T07:50:57.581Z,9.20
2018-07-26T07:52:01.843Z,8.50
2018-07-26T07:53:06.262Z,14.50
2018-07-26T07:54:10.467Z,11.63
2018-07-26T07:55:28.040Z,10.70
2018-07-26T07:56:32.245Z,10.40
2018-07-26T07:57:36.486Z,11.27
2018-07-26T07:58:40.746Z,13.93
2018-07-26T07:59:45.138Z,12.53
2018-07-26T08:00:49.364Z,8.60
2018-07-26T08:01:53.729Z,8.97
2018-07-26T08:02:57.969Z,10.73
2018-07-26T08:04:02.162Z,7.80
2018-07-26T08:05:06.499Z,14.67
2018-07-26T08:06:10.749Z,8.90
2018-07-26T08:07:15.007Z,8.57
2018-07-26T08:08:19.364Z,9.53
2018-07-26T08:09:23.512Z,10.40
2018-07-26T08:10:27.656Z,9.63
2018-07-26T08:11:31.922Z,12.67
2018-07-26T08:12:36.123Z,10.10
2018-07-26T08:13:40.430Z,11.47
2018-07-26T08:14:44.679Z,14.30
2018-07-26T08:15:48.936Z,14.30
2018-07-26T08:16:53.148Z,18.33
2018-07-26T08:17:57.625Z,15.70
2018-07-26T08:19:01.873Z,10.53
2018-07-26T08:20:06.692Z,12.00
2018-07-26T08:21:11.306Z,9.27
2018-07-26T08:22:15.510Z,9.03
2018-07-26T08:23:19.738Z,14.23
2018-07-26T08:24:23.963Z,6.80
2018-07-26T08:25:28.261Z,8.80
2018-07-26T08:26:32.444Z,10.07
2018-07-26T08:27:36.912Z,11.53
2018-07-26T08:28:41.089Z,13.10
2018-07-26T08:29:45.223Z,8.53
2018-07-26T08:30:49.396Z,9.13
2018-07-26T08:31:53.642Z,7.10
2018-07-26T08:32:57.914Z,8.07
2018-07-26T08:34:02.172Z,8.30
2018-07-26T08:35:06.429Z,10.27
2018-07-26T08:36:10.577Z,6.93
2018-07-26T08:37:14.757Z,13.10
2018-07-26T08:38:19.014Z,8.23
2018-07-26T08:39:23.327Z,11.37
2018-07-26T08:40:27.469Z,12.93
2018-07-26T08:41:31.637Z,5.77
2018-07-26T08:42:35.869Z,15.57
2018-07-26T08:43:40.060Z,10.27
2018-07-26T08:44:44.353Z,12.73
2018-07-26T08:45:48.608Z,8.33
2018-07-26T08:46:52.845Z,10.50
2018-07-26T08:47:57.075Z,6.67
2018-07-26T08:49:01.345Z,8.80
2018-07-26T08:50:06.305Z,11.73
2018-07-26T08:51:11.212Z,14.13
2018-07-26T08:52:15.636Z,9.87
2018-07-26T08:53:19.816Z,10.40
2018-07-26T08:54:24.041Z,9.40
2018-07-26T08:55:28.202Z,8.50
2018-07-26T08:56:32.466Z,13.27
2018-07-26T08:57:37.012Z,7.63
2018-07-26T08:58:41.158Z,8.97
2018-07-26T08:59:45.459Z,8.33
2018-07-26T09:00:49.819Z,8.43
2018-07-26T09:01:54.033Z,10.60
2018-07-26T09:02:58.235Z,9.50
2018-07-26T09:04:02.413Z,7.17
2018-07-26T09:05:07.031Z,7.30
2018-07-26T09:06:11.890Z,8.50
2018-07-26T09:07:16.120Z,9.87
2018-07-26T09:08:20.350Z,6.60
2018-07-26T09:09:24.499Z,6.40
2018-07-26T09:10:28.839Z,8.10
2018-07-26T09:11:33.106Z,7.50
2018-07-26T09:12:37.266Z,9.87
2018-07-26T09:13:41.455Z,6.50
2018-07-26T09:14:45.651Z,12.73
2018-07-26T09:15:49.811Z,14.60
2018-07-26T09:16:54.186Z,7.10
2018-07-26T09:17:58.629Z,8.23
2018-07-26T09:19:02.812Z,5.93
2018-07-26T09:20:07.194Z,12.00
2018-07-26T09:21:11.470Z,6.10
2018-07-26T09:22:15.688Z,9.87
2018-07-26T09:23:20.224Z,13.47
2018-07-26T09:24:24.504Z,11.33
2018-07-26T09:25:28.867Z,7.17
2018-07-26T09:26:33.174Z,6.00
2018-07-26T09:27:37.369Z,5.93
2018-07-26T09:28:41.747Z,6.07
2018-07-26T09:29:45.953Z,11.20
2018-07-26T09:30:50.274Z,8.50
2018-07-26T09:31:54.437Z,5.20
2018-07-26T09:32:58.693Z,10.17
2018-07-26T09:34:02.838Z,6.83
2018-07-26T09:35:07.713Z,5.63
2018-07-26T09:36:11.858Z,6.83
2018-07-26T09:37:16.098Z,6.13
2018-07-26T09:38:20.298Z,7.00
2018-07-26T09:39:24.557Z,8.97
2018-07-26T09:40:28.810Z,7.13
2018-07-26T09:41:32.994Z,6.53
2018-07-26T09:42:37.210Z,10.40
2018-07-26T09:43:41.438Z,7.33
2018-07-26T09:44:45.762Z,5.53
2018-07-26T09:45:49.953Z,6.50
2018-07-26T09:46:54.159Z,5.50
2018-07-26T09:47:58.366Z,6.10
2018-07-26T09:49:02.566Z,11.30
2018-07-26T09:50:07.081Z,10.40
2018-07-26T09:51:11.262Z,5.37
2018-07-26T09:52:15.510Z,7.70
2018-07-26T09:53:19.757Z,7.67
2018-07-26T09:54:24.125Z,8.90
2018-07-26T09:55:28.385Z,5.63
2018-07-26T09:56:32.613Z,5.30
2018-07-26T09:57:37.059Z,7.00
2018-07-26T09:58:41.491Z,5.23
2018-07-26T09:59:45.687Z,6.53
2018-07-26T10:00:55.178Z,6.97
2018-07-26T10:01:59.403Z,8.37
2018-07-26T10:03:03.626Z,15.10
2018-07-26T10:04:07.893Z,7.70
2018-07-26T10:05:12.107Z,9.20
2018-07-26T10:06:16.417Z,5.50
2018-07-26T10:07:20.559Z,7.57
2018-07-26T10:08:24.941Z,14.87
2018-07-26T10:09:29.149Z,12.30
2018-07-26T10:10:33.292Z,14.03
2018-07-26T10:11:37.814Z,11.53
2018-07-26T10:12:42.097Z,9.43
2018-07-26T10:13:46.335Z,17.90
2018-07-26T10:14:57.347Z,7.80
2018-07-26T10:16:01.507Z,5.70
2018-07-26T10:17:05.797Z,11.20
2018-07-26T10:18:10.505Z,15.40
2018-07-26T10:19:14.742Z,5.43
2018-07-26T10:20:19.421Z,9.90
2018-07-26T10:21:23.617Z,12.67
2018-07-26T10:22:27.796Z,7.77
2018-07-26T10:23:31.946Z,11.80
2018-07-26T10:24:36.171Z,5.27
2018-07-26T10:25:40.338Z,8.60
2018-07-26T10:26:44.478Z,7.67
2018-07-26T10:27:48.664Z,5.23
2018-07-26T10:28:52.906Z,6.83
2018-07-26T10:29:57.138Z,6.83
2018-07-26T10:31:01.342Z,9.40
2018-07-26T10:32:05.739Z,6.30
2018-07-26T10:33:10.113Z,5.60
2018-07-26T10:34:14.449Z,11.63
2018-07-26T10:35:18.709Z,5.77
2018-07-26T10:36:23.070Z,8.30
2018-07-26T10:37:27.250Z,8.20
2018-07-26T10:38:31.489Z,6.93
2018-07-26T10:39:35.791Z,6.20
2018-07-26T10:40:39.983Z,10.10
2018-07-26T10:41:44.247Z,6.53
2018-07-26T10:42:48.474Z,7.13
2018-07-26T10:43:52.685Z,6.63
2018-07-26T10:44:56.934Z,6.70
2018-07-26T10:46:01.219Z,7.83
2018-07-26T10:47:05.450Z,6.83
2018-07-26T10:48:09.693Z,11.43
2018-07-26T10:49:13.953Z,5.43
2018-07-26T10:50:18.217Z,6.03
2018-07-26T12:20:02.917Z,5.30
2018-07-26T12:21:07.328Z,6.50
2018-07-26T12:22:11.514Z,5.20
2018-07-26T12:23:15.763Z,4.87
2018-07-26T12:24:19.940Z,4.00
2018-07-26T12:25:24.282Z,5.30
2018-07-26T12:26:28.525Z,5.27
2018-07-26T12:27:32.725Z,7.47
2018-07-26T12:28:36.927Z,5.00
2018-07-26T12:29:41.141Z,6.43
2018-07-26T12:30:45.535Z,4.47
2018-07-26T12:31:49.929Z,5.40
2018-07-26T12:32:54.201Z,9.30
2018-07-26T12:33:58.486Z,6.87
2018-07-26T12:35:02.669Z,6.37
2018-07-26T12:36:06.846Z,7.00
2018-07-26T12:37:11.018Z,5.70
2018-07-26T12:38:15.252Z,5.43
2018-07-26T12:39:19.395Z,8.80
2018-07-26T12:40:23.602Z,7.40
2018-07-26T12:41:28.022Z,5.53
2018-07-26T12:42:32.149Z,5.10
2018-07-26T12:43:36.538Z,9.67
2018-07-26T12:44:40.659Z,5.33
2018-07-26T12:45:44.858Z,6.07
2018-07-26T12:46:49.093Z,6.40
2018-07-26T12:47:53.321Z,5.33
2018-07-26T12:48:57.453Z,4.70
2018-07-26T12:50:01.623Z,4.53
2018-07-26T12:51:05.842Z,5.00
2018-07-26T12:52:11.697Z,5.40
2018-07-26T12:53:15.899Z,5.77
2018-07-26T12:54:20.041Z,7.23
2018-07-26T12:55:24.266Z,8.57
2018-07-26T12:56:28.680Z,7.07
2018-07-26T12:57:39.444Z,4.13
2018-07-26T12:58:44.037Z,8.23
2018-07-26T12:59:48.299Z,5.10
2018-07-26T13:00:52.736Z,6.70
2018-07-26T13:01:56.855Z,4.80
2018-07-26T13:03:01.117Z,5.03
2018-07-26T13:04:05.328Z,5.93
2018-07-26T13:05:09.670Z,6.17
2018-07-26T13:06:13.837Z,6.13
2018-07-26T13:07:18.000Z,6.30
2018-07-26T13:08:22.199Z,4.80
2018-07-26T13:09:26.339Z,8.40
2018-07-26T13:10:31.270Z,6.53
2018-07-26T13:11:35.451Z,5.27
2018-07-26T13:12:39.601Z,6.97
2018-07-26T13:13:43.846Z,6.67
2018-07-26T13:14:48.006Z,10.43
2018-07-26T13:15:52.106Z,6.20
2018-07-26T13:16:56.280Z,5.13
2018-07-26T13:18:00.705Z,8.83
2018-07-26T13:19:05.120Z,7.47
2018-07-26T13:20:10.110Z,8.07
2018-07-26T13:21:14.293Z,6.23
2018-07-26T13:22:18.496Z,5.43
2018-07-26T13:23:22.695Z,6.73
2018-07-26T13:24:26.906Z,6.40
2018-07-26T13:25:31.072Z,5.07
2018-07-26T13:26:35.287Z,6.27
2018-07-26T13:27:39.705Z,4.00
2018-07-26T13:28:44.388Z,4.13
2018-07-26T13:29:48.804Z,8.33
2018-07-26T13:30:53.013Z,6.17
2018-07-26T13:31:57.324Z,6.03
2018-07-26T13:33:01.782Z,5.40
2018-07-26T13:34:06.270Z,4.97
2018-07-26T13:35:10.752Z,5.87
2018-07-26T13:36:15.037Z,4.97
2018-07-26T13:37:19.290Z,6.70
2018-07-26T13:38:23.565Z,4.13
2018-07-26T13:39:27.733Z,6.30
2018-07-26T13:40:31.936Z,4.17
2018-07-26T13:41:36.279Z,7.10
2018-07-26T13:42:40.532Z,4.87
2018-07-26T13:43:44.773Z,6.33
2018-07-26T13:44:48.968Z,4.50
2018-07-26T13:45:53.248Z,6.83
2018-07-26T13:46:57.528Z,5.40
2018-07-26T13:48:01.687Z,3.93
2018-07-26T13:49:05.875Z,4.83
2018-07-26T13:50:10.101Z,4.60
2018-07-26T13:51:14.354Z,13.20
2018-07-26T13:52:18.524Z,4.20
2018-07-26T13:53:22.693Z,4.00
2018-07-26T13:54:26.918Z,4.53
2018-07-26T13:55:31.081Z,4.87
2018-07-26T13:56:35.218Z,6.07
2018-07-26T13:57:39.373Z,8.00
2018-07-26T13:58:43.550Z,7.40
2018-07-26T13:59:47.722Z,4.83
2018-07-26T14:00:51.923Z,6.77
2018-07-26T14:01:56.167Z,5.30
2018-07-26T14:03:00.350Z,4.40
2018-07-26T14:04:04.549Z,5.67
2018-07-26T14:05:08.683Z,5.40
2018-07-26T14:06:12.812Z,5.50
2018-07-26T14:07:16.991Z,5.73
2018-07-26T14:08:21.889Z,4.10
2018-07-26T14:09:26.281Z,4.23
2018-07-26T14:10:30.751Z,6.50
2018-07-26T14:11:35.222Z,4.97
2018-07-26T14:12:39.865Z,4.50
2018-07-26T14:13:44.101Z,3.90
2018-07-26T14:14:48.373Z,5.20
2018-07-26T14:15:55.877Z,5.73
2018-07-26T14:17:00.046Z,4.93
2018-07-26T14:18:04.316Z,6.07
2018-07-26T14:19:09.194Z,7.63
2018-07-26T14:20:13.902Z,6.30
2018-07-26T14:21:18.111Z,5.00
2018-07-26T14:22:22.306Z,5.43
2018-07-26T14:23:31.886Z,4.70
2018-07-26T14:24:36.123Z,4.50
2018-07-26T14:25:40.275Z,4.73
2018-07-26T14:26:44.504Z,4.33
2018-07-26T14:27:48.710Z,6.07
2018-07-26T14:28:52.962Z,4.73
2018-07-26T14:29:57.402Z,4.20
2018-07-26T14:31:01.610Z,8.90
2018-07-26T14:32:06.182Z,6.90
2018-07-26T14:33:10.433Z,6.23
2018-07-26T14:34:15.129Z,8.87
2018-07-26T14:35:19.277Z,5.73
2018-07-26T14:36:23.475Z,7.43
2018-07-26T14:37:27.698Z,5.07
2018-07-26T14:38:32.053Z,4.30
2018-07-26T14:39:36.320Z,7.83
2018-07-26T14:40:40.546Z,4.00
2018-07-26T14:41:44.669Z,4.83
2018-07-26T14:42:49.237Z,7.30
2018-07-26T14:43:53.421Z,7.63
2018-07-26T14:44:58.017Z,5.90
2018-07-26T14:46:02.527Z,8.03
2018-07-26T14:47:07.179Z,4.87
2018-07-26T14:48:11.418Z,7.20
2018-07-26T14:49:15.629Z,6.50
2018-07-26T14:50:19.822Z,9.70
2018-07-26T14:51:24.199Z,4.30
2018-07-26T14:52:28.380Z,7.10
2018-07-26T14:53:32.577Z,7.20
2018-07-26T14:54:36.848Z,4.97
2018-07-26T14:55:41.048Z,6.13
2018-07-26T14:56:45.217Z,6.47
2018-07-26T14:57:49.414Z,8.73
2018-07-26T14:58:53.680Z,7.97
2018-07-26T14:59:59.457Z,4.60
2018-07-26T15:01:03.821Z,4.70
2018-07-26T15:02:08.011Z,7.40
2018-07-26T15:03:12.209Z,5.27
2018-07-26T15:04:16.485Z,5.40
2018-07-26T15:05:20.929Z,3.63
2018-07-26T15:06:25.303Z,4.90
2018-07-26T15:07:29.550Z,10.80
2018-07-26T15:08:33.830Z,5.60
2018-07-26T15:09:38.125Z,4.37
2018-07-26T15:10:42.527Z,5.27
2018-07-26T15:11:46.836Z,4.30
2018-07-26T15:12:51.073Z,4.23
2018-07-26T15:13:55.352Z,4.60
2018-07-26T15:14:59.597Z,5.00
2018-07-26T15:16:03.832Z,10.17
2018-07-26T15:17:08.094Z,10.20
2018-07-26T15:18:12.281Z,8.63
2018-07-26T15:19:16.516Z,13.37
2018-07-26T15:20:20.961Z,10.10
2018-07-26T15:21:25.103Z,7.53
2018-07-26T15:22:29.482Z,6.23
2018-07-26T15:23:34.052Z,8.80
2018-07-26T15:24:38.445Z,4.83
2018-07-26T15:25:43.143Z,5.90
2018-07-26T15:26:47.693Z,6.30
2018-07-26T15:27:52.119Z,6.90
2018-07-26T15:28:56.346Z,15.93
2018-07-26T15:30:00.515Z,7.07